sensor_id;sensor_type;location;lat;lon;timestamp;pressure;altitude;pressure_sealevel;temperature;humidity
53932;BME280;39844;52.496;13.482;2023-03-03T00:00:07;102150.44;;;0.20;95.12
53932;BME280;39844;52.496;13.482;2023-03-03T00:02:32;102163.16;;;0.17;94.84
53932;BME280;39844;52.496;13.482;2023-03-03T00:04:57;102175.94;;;0.16;95.17
53932;BME280;39844;52.496;13.482;2023-03-03T00:07:23;102170.63;;;0.13;95.16
53932;BME280;39844;52.496;13.482;2023-03-03T00:09:49;102187.09;;;0.15;95.64
53932;BME280;39844;52.496;13.482;2023-03-03T00:12:26;102179.34;;;0.15;95.65
53932;BME280;39844;52.496;13.482;2023-03-03T00:14:51;102181.28;;;0.19;96.02
53932;BME280;39844;52.496;13.482;2023-03-03T00:17:24;102175.22;;;0.18;95.60
53932;BME280;39844;52.496;13.482;2023-03-03T00:19:50;102172.75;;;0.20;95.66
53932;BME280;39844;52.496;13.482;2023-03-03T00:22:29;102169.22;;;0.18;95.53
53932;BME280;39844;52.496;13.482;2023-03-03T00:24:57;102163.41;;;0.22;96.38
53932;BME280;39844;52.496;13.482;2023-03-03T00:27:30;102166.00;;;0.22;95.44
53932;BME280;39844;52.496;13.482;2023-03-03T00:29:59;102148.72;;;0.21;95.16
53932;BME280;39844;52.496;13.482;2023-03-03T00:32:36;102151.47;;;0.24;95.70
53932;BME280;39844;52.496;13.482;2023-03-03T00:37:56;102140.25;;;0.23;94.41
53932;BME280;39844;52.496;13.482;2023-03-03T00:40:28;102136.81;;;0.23;94.73
53932;BME280;39844;52.496;13.482;2023-03-03T00:42:58;102157.28;;;0.20;94.45
53932;BME280;39844;52.496;13.482;2023-03-03T00:45:30;102153.59;;;0.16;94.35
53932;BME280;39844;52.496;13.482;2023-03-03T00:47:57;102144.09;;;0.15;94.89
53932;BME280;39844;52.496;13.482;2023-03-03T00:50:33;102133.78;;;0.15;94.81
53932;BME280;39844;52.496;13.482;2023-03-03T00:53:04;102134.63;;;0.16;95.17
53932;BME280;39844;52.496;13.482;2023-03-03T00:55:30;102136.44;;;0.17;94.98
53932;BME280;39844;52.496;13.482;2023-03-03T00:57:56;102129.66;;;0.19;95.30
53932;BME280;39844;52.496;13.482;2023-03-03T01:00:21;102134.03;;;0.20;95.18
53932;BME280;39844;52.496;13.482;2023-03-03T01:02:47;102132.34;;;0.20;94.77
53932;BME280;39844;52.496;13.482;2023-03-03T01:05:14;102127.28;;;0.22;95.42
53932;BME280;39844;52.496;13.482;2023-03-03T01:07:40;102128.25;;;0.24;95.24
53932;BME280;39844;52.496;13.482;2023-03-03T01:10:06;102117.22;;;0.26;95.35
53932;BME280;39844;52.496;13.482;2023-03-03T01:12:31;102122.38;;;0.26;94.95
53932;BME280;39844;52.496;13.482;2023-03-03T01:14:56;102127.66;;;0.28;95.09
53932;BME280;39844;52.496;13.482;2023-03-03T01:17:22;102122.56;;;0.29;95.06
53932;BME280;39844;52.496;13.482;2023-03-03T01:19:47;102126.13;;;0.31;94.99
53932;BME280;39844;52.496;13.482;2023-03-03T01:22:12;102125.34;;;0.32;94.85
53932;BME280;39844;52.496;13.482;2023-03-03T01:24:38;102120.16;;;0.32;94.59
53932;BME280;39844;52.496;13.482;2023-03-03T01:27:03;102115.19;;;0.35;95.25
53932;BME280;39844;52.496;13.482;2023-03-03T01:29:28;102119.66;;;0.38;95.11
53932;BME280;39844;52.496;13.482;2023-03-03T01:31:54;102108.31;;;0.36;94.92
53932;BME280;39844;52.496;13.482;2023-03-03T01:34:19;102104.31;;;0.41;96.17
53932;BME280;39844;52.496;13.482;2023-03-03T01:36:44;102099.25;;;0.42;96.12
53932;BME280;39844;52.496;13.482;2023-03-03T01:39:10;102101.13;;;0.45;95.85
53932;BME280;39844;52.496;13.482;2023-03-03T01:41:36;102093.56;;;0.48;96.40
53932;BME280;39844;52.496;13.482;2023-03-03T01:44:01;102092.75;;;0.49;95.85
53932;BME280;39844;52.496;13.482;2023-03-03T01:47:09;102093.56;;;0.48;95.18
53932;BME280;39844;52.496;13.482;2023-03-03T01:49:40;102088.22;;;0.45;94.95
53932;BME280;39844;52.496;13.482;2023-03-03T01:52:21;102090.88;;;0.46;95.24
53932;BME280;39844;52.496;13.482;2023-03-03T01:54:54;102081.44;;;0.47;95.35
53932;BME280;39844;52.496;13.482;2023-03-03T01:57:26;102079.63;;;0.46;94.84
53932;BME280;39844;52.496;13.482;2023-03-03T01:59:54;102094.34;;;0.47;95.09
53932;BME280;39844;52.496;13.482;2023-03-03T02:02:22;102090.16;;;0.49;95.40
53932;BME280;39844;52.496;13.482;2023-03-03T02:04:49;102086.78;;;0.50;95.18
53932;BME280;39844;52.496;13.482;2023-03-03T02:07:15;102085.81;;;0.48;94.79
53932;BME280;39844;52.496;13.482;2023-03-03T02:12:22;102096.75;;;0.44;94.97
53932;BME280;39844;52.496;13.482;2023-03-03T02:14:49;102100.94;;;0.42;95.00
53932;BME280;39844;52.496;13.482;2023-03-03T02:17:15;102098.34;;;0.42;95.43
53932;BME280;39844;52.496;13.482;2023-03-03T02:20:00;102102.53;;;0.40;95.75
53932;BME280;39844;52.496;13.482;2023-03-03T02:22:38;102096.47;;;0.39;95.67
53932;BME280;39844;52.496;13.482;2023-03-03T02:25:10;102098.28;;;0.40;96.15
53932;BME280;39844;52.496;13.482;2023-03-03T02:27:38;102104.41;;;0.42;96.45
53932;BME280;39844;52.496;13.482;2023-03-03T02:30:10;102096.94;;;0.47;96.77
53932;BME280;39844;52.496;13.482;2023-03-03T02:32:36;102108.03;;;0.46;95.93
53932;BME280;39844;52.496;13.482;2023-03-03T02:35:32;102109.84;;;0.47;96.40
53932;BME280;39844;52.496;13.482;2023-03-03T02:38:05;102107.44;;;0.50;96.29
53932;BME280;39844;52.496;13.482;2023-03-03T02:40:34;102098.72;;;0.48;95.98
53932;BME280;39844;52.496;13.482;2023-03-03T02:43:03;102096.03;;;0.46;96.20
53932;BME280;39844;52.496;13.482;2023-03-03T02:45:29;102105.47;;;0.46;96.02
53932;BME280;39844;52.496;13.482;2023-03-03T02:47:54;102099.50;;;0.47;96.14
53932;BME280;39844;52.496;13.482;2023-03-03T02:50:19;102100.41;;;0.47;95.92
53932;BME280;39844;52.496;13.482;2023-03-03T02:52:45;102092.75;;;0.49;95.99
53932;BME280;39844;52.496;13.482;2023-03-03T02:55:10;102100.47;;;0.49;95.88
53932;BME280;39844;52.496;13.482;2023-03-03T02:57:35;102094.59;;;0.51;96.35
53932;BME280;39844;52.496;13.482;2023-03-03T03:00:01;102101.56;;;0.52;96.13
53932;BME280;39844;52.496;13.482;2023-03-03T03:02:26;102096.41;;;0.52;96.19
53932;BME280;39844;52.496;13.482;2023-03-03T03:04:51;102105.84;;;0.52;96.06
53932;BME280;39844;52.496;13.482;2023-03-03T03:07:17;102109.19;;;0.51;95.99
53932;BME280;39844;52.496;13.482;2023-03-03T03:09:42;102104.88;;;0.50;95.81
53932;BME280;39844;52.496;13.482;2023-03-03T03:12:07;102102.09;;;0.47;96.02
53932;BME280;39844;52.496;13.482;2023-03-03T03:14:32;102105.47;;;0.46;96.29
53932;BME280;39844;52.496;13.482;2023-03-03T03:16:58;102113.31;;;0.47;96.79
53932;BME280;39844;52.496;13.482;2023-03-03T03:19:23;102118.75;;;0.52;97.56
53932;BME280;39844;52.496;13.482;2023-03-03T03:21:48;102131.59;;;0.50;96.74
53932;BME280;39844;52.496;13.482;2023-03-03T03:24:14;102128.09;;;0.50;96.44
53932;BME280;39844;52.496;13.482;2023-03-03T03:26:39;102133.97;;;0.47;96.23
53932;BME280;39844;52.496;13.482;2023-03-03T03:29:04;102128.56;;;0.43;96.41
53932;BME280;39844;52.496;13.482;2023-03-03T03:31:29;102127.66;;;0.42;96.88
53932;BME280;39844;52.496;13.482;2023-03-03T03:33:55;102127.84;;;0.45;97.33
53932;BME280;39844;52.496;13.482;2023-03-03T03:36:20;102129.59;;;0.46;97.29
53932;BME280;39844;52.496;13.482;2023-03-03T03:38:45;102133.00;;;0.45;96.83
53932;BME280;39844;52.496;13.482;2023-03-03T03:41:11;102148.41;;;0.44;97.08
53932;BME280;39844;52.496;13.482;2023-03-03T03:43:37;102129.34;;;0.42;97.25
53932;BME280;39844;52.496;13.482;2023-03-03T03:46:02;102119.91;;;0.42;97.41
53932;BME280;39844;52.496;13.482;2023-03-03T03:48:28;102112.75;;;0.38;97.44
53932;BME280;39844;52.496;13.482;2023-03-03T03:50:53;102113.47;;;0.36;97.66
53932;BME280;39844;52.496;13.482;2023-03-03T03:53:18;102122.84;;;0.34;98.17
53932;BME280;39844;52.496;13.482;2023-03-03T03:55:44;102114.09;;;0.32;98.14
53932;BME280;39844;52.496;13.482;2023-03-03T03:58:14;102116.78;;;0.33;98.51
53932;BME280;39844;52.496;13.482;2023-03-03T04:00:40;102115.97;;;0.34;98.68
53932;BME280;39844;52.496;13.482;2023-03-03T04:03:06;102102.81;;;0.30;97.87
53932;BME280;39844;52.496;13.482;2023-03-03T04:05:31;102105.19;;;0.27;98.09
53932;BME280;39844;52.496;13.482;2023-03-03T04:07:56;102097.25;;;0.24;98.49
53932;BME280;39844;52.496;13.482;2023-03-03T04:10:21;102098.09;;;0.23;98.67
53932;BME280;39844;52.496;13.482;2023-03-03T04:12:47;102093.63;;;0.20;98.78
53932;BME280;39844;52.496;13.482;2023-03-03T04:15:13;102090.03;;;0.18;99.09
53932;BME280;39844;52.496;13.482;2023-03-03T04:17:39;102082.31;;;0.18;99.31
53932;BME280;39844;52.496;13.482;2023-03-03T04:20:05;102084.00;;;0.18;99.08
53932;BME280;39844;52.496;13.482;2023-03-03T04:22:31;102090.16;;;0.20;99.46
53932;BME280;39844;52.496;13.482;2023-03-03T04:24:57;102093.72;;;0.22;99.63
53932;BME280;39844;52.496;13.482;2023-03-03T04:27:22;102088.47;;;0.20;99.19
53932;BME280;39844;52.496;13.482;2023-03-03T04:29:47;102093.25;;;0.14;98.71
53932;BME280;39844;52.496;13.482;2023-03-03T04:32:12;102086.22;;;0.12;99.23
53932;BME280;39844;52.496;13.482;2023-03-03T04:34:38;102086.13;;;0.10;99.61
53932;BME280;39844;52.496;13.482;2023-03-03T04:37:03;102091.19;;;0.09;99.94
53932;BME280;39844;52.496;13.482;2023-03-03T04:39:28;102085.25;;;0.10;100.00
53932;BME280;39844;52.496;13.482;2023-03-03T04:41:54;102083.38;;;0.07;100.00
53932;BME280;39844;52.496;13.482;2023-03-03T04:44:19;102080.69;;;0.06;100.00
53932;BME280;39844;52.496;13.482;2023-03-03T04:46:45;102086.53;;;0.03;100.00
53932;BME280;39844;52.496;13.482;2023-03-03T04:49:10;102092.22;;;-0.03;100.00
53932;BME280;39844;52.496;13.482;2023-03-03T04:51:35;102092.22;;;-0.03;100.00
53932;BME280;39844;52.496;13.482;2023-03-03T04:54:01;102093.84;;;-0.05;100.00
53932;BME280;39844;52.496;13.482;2023-03-03T04:56:26;102100.41;;;-0.10;100.00
53932;BME280;39844;52.496;13.482;2023-03-03T04:58:52;102093.47;;;-0.11;100.00
53932;BME280;39844;52.496;13.482;2023-03-03T05:01:17;102094.00;;;-0.16;100.00
53932;BME280;39844;52.496;13.482;2023-03-03T05:03:42;102096.66;;;-0.15;100.00
53932;BME280;39844;52.496;13.482;2023-03-03T05:06:07;102082.00;;;-0.16;100.00
53932;BME280;39844;52.496;13.482;2023-03-03T05:08:33;102086.25;;;-0.16;100.00
53932;BME280;39844;52.496;13.482;2023-03-03T05:10:58;102082.78;;;-0.17;100.00
53932;BME280;39844;52.496;13.482;2023-03-03T05:13:23;102086.13;;;-0.18;100.00
53932;BME280;39844;52.496;13.482;2023-03-03T05:15:50;102092.91;;;-0.20;100.00
53932;BME280;39844;52.496;13.482;2023-03-03T05:18:18;102087.16;;;-0.16;100.00
53932;BME280;39844;52.496;13.482;2023-03-03T05:20:43;102079.41;;;-0.16;100.00
53932;BME280;39844;52.496;13.482;2023-03-03T05:23:08;102073.53;;;-0.13;100.00
53932;BME280;39844;52.496;13.482;2023-03-03T05:25:34;102086.97;;;-0.19;100.00
53932;BME280;39844;52.496;13.482;2023-03-03T05:27:59;102080.81;;;-0.21;100.00
53932;BME280;39844;52.496;13.482;2023-03-03T05:30:24;102078.84;;;-0.25;100.00
53932;BME280;39844;52.496;13.482;2023-03-03T05:32:50;102082.38;;;-0.23;100.00
53932;BME280;39844;52.496;13.482;2023-03-03T05:35:15;102087.56;;;-0.23;100.00
53932;BME280;39844;52.496;13.482;2023-03-03T05:37:40;102083.09;;;-0.25;100.00
53932;BME280;39844;52.496;13.482;2023-03-03T05:40:06;102102.69;;;-0.29;100.00
53932;BME280;39844;52.496;13.482;2023-03-03T05:42:32;102111.91;;;-0.32;100.00
53932;BME280;39844;52.496;13.482;2023-03-03T05:44:57;102114.41;;;-0.34;100.00
53932;BME280;39844;52.496;13.482;2023-03-03T05:47:22;102118.75;;;-0.33;100.00
53932;BME280;39844;52.496;13.482;2023-03-03T05:49:48;102131.75;;;-0.31;100.00
53932;BME280;39844;52.496;13.482;2023-03-03T05:52:13;102125.69;;;-0.32;100.00
53932;BME280;39844;52.496;13.482;2023-03-03T05:54:38;102127.28;;;-0.34;100.00
53932;BME280;39844;52.496;13.482;2023-03-03T05:57:03;102122.13;;;-0.34;100.00
53932;BME280;39844;52.496;13.482;2023-03-03T05:59:29;102117.97;;;-0.32;100.00
53932;BME280;39844;52.496;13.482;2023-03-03T06:01:54;102119.56;;;-0.34;100.00
53932;BME280;39844;52.496;13.482;2023-03-03T06:04:19;102122.41;;;-0.29;100.00
53932;BME280;39844;52.496;13.482;2023-03-03T06:06:45;102119.91;;;-0.28;100.00
53932;BME280;39844;52.496;13.482;2023-03-03T06:09:10;102121.91;;;-0.24;100.00
53932;BME280;39844;52.496;13.482;2023-03-03T06:11:35;102113.66;;;-0.18;100.00
53932;BME280;39844;52.496;13.482;2023-03-03T06:14:00;102120.69;;;-0.16;100.00
53932;BME280;39844;52.496;13.482;2023-03-03T06:16:26;102105.28;;;-0.14;100.00
53932;BME280;39844;52.496;13.482;2023-03-03T06:18:51;102115.53;;;-0.16;100.00
53932;BME280;39844;52.496;13.482;2023-03-03T06:21:16;102111.16;;;-0.17;100.00
53932;BME280;39844;52.496;13.482;2023-03-03T06:23:42;102122.25;;;-0.18;100.00
53932;BME280;39844;52.496;13.482;2023-03-03T06:26:07;102135.09;;;-0.19;100.00
53932;BME280;39844;52.496;13.482;2023-03-03T06:28:33;102144.78;;;-0.15;100.00
53932;BME280;39844;52.496;13.482;2023-03-03T06:30:58;102134.56;;;-0.14;100.00
53932;BME280;39844;52.496;13.482;2023-03-03T06:33:23;102134.78;;;-0.11;100.00
53932;BME280;39844;52.496;13.482;2023-03-03T06:35:50;102139.22;;;-0.08;100.00
53932;BME280;39844;52.496;13.482;2023-03-03T06:38:16;102140.44;;;-0.16;100.00
53932;BME280;39844;52.496;13.482;2023-03-03T06:40:41;102134.19;;;-0.20;100.00
53932;BME280;39844;52.496;13.482;2023-03-03T06:43:06;102144.50;;;-0.20;100.00
53932;BME280;39844;52.496;13.482;2023-03-03T06:45:32;102136.56;;;-0.23;100.00
53932;BME280;39844;52.496;13.482;2023-03-03T06:48:05;102144.16;;;-0.26;100.00
53932;BME280;39844;52.496;13.482;2023-03-03T06:50:33;102151.06;;;-0.25;100.00
53932;BME280;39844;52.496;13.482;2023-03-03T06:53:07;102154.28;;;-0.29;100.00
53932;BME280;39844;52.496;13.482;2023-03-03T06:55:34;102158.13;;;-0.35;100.00
53932;BME280;39844;52.496;13.482;2023-03-03T06:58:00;102172.75;;;-0.36;100.00
53932;BME280;39844;52.496;13.482;2023-03-03T07:00:31;102168.38;;;-0.37;100.00
53932;BME280;39844;52.496;13.482;2023-03-03T07:02:59;102176.66;;;-0.28;100.00
53932;BME280;39844;52.496;13.482;2023-03-03T07:05:46;102174.41;;;-0.23;100.00
53932;BME280;39844;52.496;13.482;2023-03-03T07:08:22;102168.34;;;-0.24;100.00
53932;BME280;39844;52.496;13.482;2023-03-03T07:10:49;102171.91;;;-0.22;100.00
53932;BME280;39844;52.496;13.482;2023-03-03T07:13:27;102163.19;;;-0.24;100.00
53932;BME280;39844;52.496;13.482;2023-03-03T07:15:55;102170.81;;;-0.25;100.00
53932;BME280;39844;52.496;13.482;2023-03-03T07:20:54;102182.22;;;-0.22;100.00
53932;BME280;39844;52.496;13.482;2023-03-03T07:23:47;102188.97;;;-0.24;100.00
53932;BME280;39844;52.496;13.482;2023-03-03T07:26:16;102185.69;;;-0.21;100.00
53932;BME280;39844;52.496;13.482;2023-03-03T07:28:44;102186.47;;;-0.22;100.00
53932;BME280;39844;52.496;13.482;2023-03-03T07:31:25;102194.13;;;-0.24;100.00
53932;BME280;39844;52.496;13.482;2023-03-03T07:33:51;102199.31;;;-0.24;100.00
53932;BME280;39844;52.496;13.482;2023-03-03T07:36:38;102191.38;;;-0.27;100.00
53932;BME280;39844;52.496;13.482;2023-03-03T07:41:45;102193.25;;;-0.24;100.00
53932;BME280;39844;52.496;13.482;2023-03-03T07:44:17;102194.13;;;-0.24;100.00
53932;BME280;39844;52.496;13.482;2023-03-03T07:46:48;102193.72;;;-0.17;100.00
53932;BME280;39844;52.496;13.482;2023-03-03T07:49:31;102196.69;;;-0.11;100.00
53932;BME280;39844;52.496;13.482;2023-03-03T07:51:58;102202.03;;;-0.08;100.00
53932;BME280;39844;52.496;13.482;2023-03-03T07:54:39;102209.97;;;-0.05;100.00
53932;BME280;39844;52.496;13.482;2023-03-03T07:59:48;102198.84;;;-0.04;100.00
53932;BME280;39844;52.496;13.482;2023-03-03T08:04:51;102202.41;;;-0.02;100.00
53932;BME280;39844;52.496;13.482;2023-03-03T08:07:18;102200.09;;;0.03;100.00
53932;BME280;39844;52.496;13.482;2023-03-03T08:09:47;102203.59;;;0.04;100.00
53932;BME280;39844;52.496;13.482;2023-03-03T08:17:47;102197.03;;;0.09;100.00
53932;BME280;39844;52.496;13.482;2023-03-03T08:20:41;102199.00;;;0.13;100.00
53932;BME280;39844;52.496;13.482;2023-03-03T08:23:07;102188.06;;;0.17;100.00
53932;BME280;39844;52.496;13.482;2023-03-03T08:25:32;102201.34;;;0.23;100.00
53932;BME280;39844;52.496;13.482;2023-03-03T08:27:58;102189.84;;;0.18;100.00
53932;BME280;39844;52.496;13.482;2023-03-03T08:30:23;102198.16;;;0.27;100.00
53932;BME280;39844;52.496;13.482;2023-03-03T08:32:48;102193.44;;;0.34;100.00
53932;BME280;39844;52.496;13.482;2023-03-03T08:35:14;102200.41;;;0.35;100.00
53932;BME280;39844;52.496;13.482;2023-03-03T08:37:39;102189.97;;;0.34;100.00
53932;BME280;39844;52.496;13.482;2023-03-03T08:40:05;102196.09;;;0.36;100.00
53932;BME280;39844;52.496;13.482;2023-03-03T08:42:30;102197.91;;;0.37;100.00
53932;BME280;39844;52.496;13.482;2023-03-03T08:44:55;102202.28;;;0.38;100.00
53932;BME280;39844;52.496;13.482;2023-03-03T08:47:21;102204.88;;;0.38;100.00
53932;BME280;39844;52.496;13.482;2023-03-03T08:49:46;102199.50;;;0.35;99.77
53932;BME280;39844;52.496;13.482;2023-03-03T08:52:12;102201.47;;;0.39;100.00
53932;BME280;39844;52.496;13.482;2023-03-03T08:54:37;102203.34;;;0.41;100.00
53932;BME280;39844;52.496;13.482;2023-03-03T08:57:02;102208.78;;;0.46;100.00
53932;BME280;39844;52.496;13.482;2023-03-03T08:59:28;102209.41;;;0.42;99.67
53932;BME280;39844;52.496;13.482;2023-03-03T09:01:53;102205.22;;;0.44;100.00
53932;BME280;39844;52.496;13.482;2023-03-03T09:04:18;102206.31;;;0.47;100.00
53932;BME280;39844;52.496;13.482;2023-03-03T09:06:44;102197.94;;;0.51;100.00
53932;BME280;39844;52.496;13.482;2023-03-03T09:09:09;102194.03;;;0.58;100.00
53932;BME280;39844;52.496;13.482;2023-03-03T09:11:34;102193.50;;;0.63;100.00
53932;BME280;39844;52.496;13.482;2023-03-03T09:14:11;102194.56;;;0.67;99.77
53932;BME280;39844;52.496;13.482;2023-03-03T09:16:41;102182.09;;;0.75;100.00
53932;BME280;39844;52.496;13.482;2023-03-03T09:19:34;102188.16;;;0.75;98.64
53932;BME280;39844;52.496;13.482;2023-03-03T09:22:10;102185.50;;;0.74;97.89
53932;BME280;39844;52.496;13.482;2023-03-03T09:24:42;102182.28;;;0.78;97.81
53932;BME280;39844;52.496;13.482;2023-03-03T09:27:18;102186.94;;;0.83;98.21
53932;BME280;39844;52.496;13.482;2023-03-03T09:29:46;102187.63;;;0.95;98.38
53932;BME280;39844;52.496;13.482;2023-03-03T09:32:36;102190.59;;;1.01;97.76
53932;BME280;39844;52.496;13.482;2023-03-03T09:35:35;102193.31;;;1.04;96.48
53932;BME280;39844;52.496;13.482;2023-03-03T09:38:11;102190.91;;;1.07;96.57
53932;BME280;39844;52.496;13.482;2023-03-03T09:46:12;102199.53;;;1.22;95.93
53932;BME280;39844;52.496;13.482;2023-03-03T09:48:50;102190.63;;;1.32;95.49
53932;BME280;39844;52.496;13.482;2023-03-03T09:51:39;102196.25;;;1.40;94.71
53932;BME280;39844;52.496;13.482;2023-03-03T09:57:03;102183.03;;;1.66;95.24
53932;BME280;39844;52.496;13.482;2023-03-03T10:02:23;102178.56;;;1.78;90.63
53932;BME280;39844;52.496;13.482;2023-03-03T10:18:29;102185.03;;;2.02;88.89
53932;BME280;39844;52.496;13.482;2023-03-03T10:23:54;102189.41;;;2.19;88.60
53932;BME280;39844;52.496;13.482;2023-03-03T10:32:08;102177.84;;;2.29;86.62
53932;BME280;39844;52.496;13.482;2023-03-03T10:45:34;102178.56;;;2.42;86.96
53932;BME280;39844;52.496;13.482;2023-03-03T10:50:58;102185.59;;;2.45;86.30
53932;BME280;39844;52.496;13.482;2023-03-03T10:53:36;102189.44;;;2.35;85.52
53932;BME280;39844;52.496;13.482;2023-03-03T10:58:42;102190.72;;;2.43;87.25
53932;BME280;39844;52.496;13.482;2023-03-03T11:07:25;102184.25;;;2.51;86.03
53932;BME280;39844;52.496;13.482;2023-03-03T11:19:33;102180.56;;;2.64;85.80
53932;BME280;39844;52.496;13.482;2023-03-03T11:38:13;102181.16;;;2.92;85.85
53932;BME280;39844;52.496;13.482;2023-03-03T11:45:54;102171.44;;;3.06;84.99
53932;BME280;39844;52.496;13.482;2023-03-03T11:54:36;102171.59;;;3.09;84.20
53932;BME280;39844;52.496;13.482;2023-03-03T11:57:20;102164.03;;;3.13;85.41
53932;BME280;39844;52.496;13.482;2023-03-03T12:00:00;102169.97;;;3.11;83.96
53932;BME280;39844;52.496;13.482;2023-03-03T12:16:21;102134.53;;;3.29;83.04
53932;BME280;39844;52.496;13.482;2023-03-03T12:18:59;102136.34;;;3.30;83.61
53932;BME280;39844;52.496;13.482;2023-03-03T12:21:49;102131.16;;;3.30;84.19
53932;BME280;39844;52.496;13.482;2023-03-03T12:27:09;102118.69;;;3.23;84.45
53932;BME280;39844;52.496;13.482;2023-03-03T12:30:38;102117.44;;;3.15;84.80
53932;BME280;39844;52.496;13.482;2023-03-03T12:33:12;102112.84;;;3.09;84.80
53932;BME280;39844;52.496;13.482;2023-03-03T12:41:14;102111.41;;;3.16;85.19
53932;BME280;39844;52.496;13.482;2023-03-03T12:44:05;102118.91;;;3.28;86.38
53932;BME280;39844;52.496;13.482;2023-03-03T12:49:16;102102.88;;;3.36;85.85
53932;BME280;39844;52.496;13.482;2023-03-03T12:54:59;102099.09;;;3.47;84.57
53932;BME280;39844;52.496;13.482;2023-03-03T13:02:40;102100.72;;;3.45;83.05
53932;BME280;39844;52.496;13.482;2023-03-03T13:05:29;102096.91;;;3.56;84.00
53932;BME280;39844;52.496;13.482;2023-03-03T13:16:11;102077.81;;;3.73;82.90
53932;BME280;39844;52.496;13.482;2023-03-03T13:18:50;102078.22;;;3.63;82.36
53932;BME280;39844;52.496;13.482;2023-03-03T13:24:03;102074.72;;;3.63;82.72
53932;BME280;39844;52.496;13.482;2023-03-03T13:29:06;102073.44;;;3.72;82.53
53932;BME280;39844;52.496;13.482;2023-03-03T13:31:45;102069.88;;;3.70;83.55
53932;BME280;39844;52.496;13.482;2023-03-03T13:37:00;102066.84;;;3.61;84.13
53932;BME280;39844;52.496;13.482;2023-03-03T13:39:32;102064.25;;;3.61;84.45
53932;BME280;39844;52.496;13.482;2023-03-03T13:42:02;102064.19;;;3.60;84.37
53932;BME280;39844;52.496;13.482;2023-03-03T13:44:38;102061.59;;;3.60;83.93
53932;BME280;39844;52.496;13.482;2023-03-03T13:50:21;102058.53;;;3.68;83.60
53932;BME280;39844;52.496;13.482;2023-03-03T13:59:19;102039.81;;;3.75;83.83
53932;BME280;39844;52.496;13.482;2023-03-03T14:07:17;102040.13;;;4.02;81.54
53932;BME280;39844;52.496;13.482;2023-03-03T14:10:06;102046.22;;;4.03;81.75
53932;BME280;39844;52.496;13.482;2023-03-03T14:15:32;102035.81;;;4.03;81.51
53932;BME280;39844;52.496;13.482;2023-03-03T14:18:02;102034.94;;;4.02;82.46
53932;BME280;39844;52.496;13.482;2023-03-03T14:20:39;102033.22;;;4.03;82.41
53932;BME280;39844;52.496;13.482;2023-03-03T14:23:30;102027.56;;;3.92;81.75
53932;BME280;39844;52.496;13.482;2023-03-03T14:26:04;102025.66;;;3.88;82.75
53932;BME280;39844;52.496;13.482;2023-03-03T14:31:20;102022.88;;;3.83;81.80
53932;BME280;39844;52.496;13.482;2023-03-03T14:36:43;102011.06;;;3.92;82.50
53932;BME280;39844;52.496;13.482;2023-03-03T14:39:31;102016.41;;;3.95;81.89
53932;BME280;39844;52.496;13.482;2023-03-03T14:41:57;102020.94;;;3.99;82.26
53932;BME280;39844;52.496;13.482;2023-03-03T14:44:28;102021.19;;;4.05;81.67
53932;BME280;39844;52.496;13.482;2023-03-03T14:49:29;102005.28;;;4.18;81.15
53932;BME280;39844;52.496;13.482;2023-03-03T14:52:23;102001.75;;;4.16;81.28
53932;BME280;39844;52.496;13.482;2023-03-03T14:54:48;102002.69;;;4.18;81.10
53932;BME280;39844;52.496;13.482;2023-03-03T15:00:27;101988.06;;;4.20;81.78
53932;BME280;39844;52.496;13.482;2023-03-03T15:03:28;101982.75;;;4.17;82.20
53932;BME280;39844;52.496;13.482;2023-03-03T15:05:56;101980.84;;;4.13;81.93
53932;BME280;39844;52.496;13.482;2023-03-03T15:08:30;101982.63;;;4.14;82.62
53932;BME280;39844;52.496;13.482;2023-03-03T15:11:31;101986.13;;;4.14;82.22
53932;BME280;39844;52.496;13.482;2023-03-03T15:14:12;101990.59;;;4.18;82.93
53932;BME280;39844;52.496;13.482;2023-03-03T15:16:39;101979.44;;;4.21;83.11
53932;BME280;39844;52.496;13.482;2023-03-03T15:19:53;101987.38;;;4.24;82.36
53932;BME280;39844;52.496;13.482;2023-03-03T15:36:43;101963.03;;;4.22;81.70
53932;BME280;39844;52.496;13.482;2023-03-03T15:44:52;101961.22;;;4.19;81.56
53932;BME280;39844;52.496;13.482;2023-03-03T15:55:23;101961.56;;;4.08;82.27
53932;BME280;39844;52.496;13.482;2023-03-03T16:03:26;101951.75;;;4.01;83.01
53932;BME280;39844;52.496;13.482;2023-03-03T16:12:20;101941.53;;;4.05;82.71
53932;BME280;39844;52.496;13.482;2023-03-03T16:20:42;101937.25;;;4.06;82.63
53932;BME280;39844;52.496;13.482;2023-03-03T16:23:23;101934.66;;;4.06;82.61
53932;BME280;39844;52.496;13.482;2023-03-03T16:31:40;101935.53;;;4.06;83.14
53932;BME280;39844;52.496;13.482;2023-03-03T16:42:25;101929.44;;;4.06;83.48
53932;BME280;39844;52.496;13.482;2023-03-03T16:50:24;101925.06;;;4.05;83.94
53932;BME280;39844;52.496;13.482;2023-03-03T16:58:40;101932.53;;;3.97;84.04
53932;BME280;39844;52.496;13.482;2023-03-03T17:01:11;101924.69;;;3.96;84.35
53932;BME280;39844;52.496;13.482;2023-03-03T17:17:42;101925.63;;;3.77;85.38
53932;BME280;39844;52.496;13.482;2023-03-03T17:20:46;101915.19;;;3.75;85.56
53932;BME280;39844;52.496;13.482;2023-03-03T17:26:34;101921.75;;;3.67;85.67
53932;BME280;39844;52.496;13.482;2023-03-03T17:29:17;101918.06;;;3.62;85.74
53932;BME280;39844;52.496;13.482;2023-03-03T17:37:39;101929.56;;;3.48;86.76
53932;BME280;39844;52.496;13.482;2023-03-03T17:45:16;101918.16;;;3.45;87.47
53932;BME280;39844;52.496;13.482;2023-03-03T17:56:32;101928.19;;;3.56;88.44
53932;BME280;39844;52.496;13.482;2023-03-03T18:14:50;101905.03;;;3.81;87.48
53932;BME280;39844;52.496;13.482;2023-03-03T18:20:20;101904.50;;;3.89;87.08